This is the latest recevied weather packets stored in our database for station/object N8RJC-13. If no packets are shown the sender has not sent any weather packets the latest 1 day(s).
| Time | Temp. | Humidity | Pressure | Rain* | Wind** | Luminosity | Snow |
|---|---|---|---|---|---|---|---|
| 1778069301 | 6.67° C | 93% | 987.8 hPa | 0 mm | 0.45 m/s, 27° | - | - |
| 1778069061 | 6.67° C | 93% | 987.6 hPa | 0 mm | 0.45 m/s, 321° | - | - |
| 1778068941 | 6.67° C | 93% | 987.6 hPa | 0 mm | 0.45 m/s, 321° | - | - |
| 1778068881 | 6.67° C | 93% | 987.6 hPa | 0 mm | 0.45 m/s, 321° | - | - |
| 1778068821 | 6.67° C | 93% | 987.7 hPa | 0 mm | 0.89 m/s, 7° | - | - |
| 1778068761 | 6.67° C | 93% | 987.7 hPa | 0 mm | 0.89 m/s, 7° | - | - |
| 1778068701 | 6.67° C | 93% | 987.7 hPa | 0 mm | 0.89 m/s, 7° | - | - |
| 1778068641 | 6.67° C | 93% | 987.7 hPa | 0 mm | 0.89 m/s, 7° | - | - |
| 1778068521 | 6.67° C | 93% | 987.5 hPa | 0 mm | 0.45 m/s, 6° | - | - |
| 1778068461 | 6.67° C | 93% | 987.5 hPa | 0 mm | 0.45 m/s, 6° | - | - |
| 1778068221 | 6.67° C | 93% | 987.6 hPa | 0 mm | 0 m/s | - | - |
| 1778068161 | 6.67° C | 93% | 987.6 hPa | 0 mm | 0 m/s | - | - |
| 1778068101 | 6.67° C | 93% | 987.6 hPa | 0 mm | 0 m/s | - | - |
| 1778067981 | 6.67° C | 93% | 987.6 hPa | 0 mm | 0 m/s | - | - |
| 1778067921 | 6.67° C | 93% | 987.2 hPa | 0 mm | 0.89 m/s, 4° | - | - |
| 1778067861 | 6.67° C | 93% | 987.2 hPa | 0 mm | 0.89 m/s, 4° | - | - |
| 1778067801 | 6.67° C | 93% | 987.2 hPa | 0 mm | 0.89 m/s, 4° | - | - |
| 1778067561 | 6.67° C | 93% | 986.9 hPa | 0 mm | 0.45 m/s, 334° | - | - |
| 1778067501 | 6.67° C | 93% | 986.9 hPa | 0 mm | 0.45 m/s, 334° | - | - |
| 1778067441 | 6.67° C | 93% | 986.9 hPa | 0 mm | 0.45 m/s, 334° | - | - |
| 1778067381 | 6.67° C | 93% | 986.9 hPa | 0 mm | 0.45 m/s, 334° | - | - |
| 1778067321 | 6.11° C | 93% | 986.5 hPa | 0 mm | 0 m/s | - | - |
| 1778067261 | 6.11° C | 93% | 986.5 hPa | 0 mm | 0 m/s | - | - |
| 1778067141 | 6.11° C | 93% | 986.5 hPa | 0 mm | 0 m/s | - | - |
| 1778067081 | 6.11° C | 93% | 986.5 hPa | 0 mm | 0 m/s | - | - |
* Rain latest hour (hover to see other rain measurements)
** Current wind speed in m/s (hover to see current wind gust speed)